Time;durP1;ratioP1;P1;durP2;ratioP2;P2;SDS_P1;SDS_P2;PMS_P1;PMS_P2;Temp;Humidity;BMP_temperature;BMP_pressure;BME280_temperature;BME280_humidity;BME280_pressure;Samples;Min_cycle;Max_cycle;Signal;HPM_P1;HPM_P2
2022/03/30 00:01:21;;;;;;;10.57;7.07;;;14.10;49.60;;;13.20;38.17;98932.19;10418220;27;96544;-81
2022/03/30 00:06:25;;;;;;;11.80;6.87;;;14.30;49.20;;;13.30;37.50;98929.88;10391413;27;96544;-81
2022/03/30 00:11:28;;;;;;;15.43;7.43;;;14.40;48.90;;;13.33;37.50;98927.59;10435339;27;96679;-81
2022/03/30 00:16:34;;;;;;;13.53;7.37;;;14.50;48.70;;;13.35;37.66;98922.06;10419910;27;96590;-80
2022/03/30 00:21:37;;;;;;;13.97;7.40;;;14.50;48.40;;;13.34;37.34;98920.41;10440131;27;96937;-80
2022/03/30 00:26:40;;;;;;;12.47;6.57;;;14.60;48.30;;;13.31;37.21;98915.50;10458682;27;96563;-80
2022/03/30 00:31:43;;;;;;;11.93;6.97;;;14.60;48.20;;;13.23;37.71;98924.59;10429126;27;96519;-81
2022/03/30 00:36:46;;;;;;;12.23;7.17;;;14.50;48.20;;;13.02;38.77;98927.59;10417498;27;96552;-81
2022/03/30 00:41:49;;;;;;;12.53;7.00;;;14.40;48.60;;;12.74;39.87;98933.28;10419221;27;96588;-81
2022/03/30 00:46:52;;;;;;;12.90;7.47;;;14.20;49.30;;;12.47;40.95;98930.69;10440737;27;96447;-80
2022/03/30 00:51:55;;;;;;;14.07;8.00;;;14.00;49.80;;;12.22;42.18;98921.78;10452176;27;96657;-80
2022/03/30 00:56:58;;;;;;;11.90;7.63;;;13.80;50.20;;;11.96;42.57;98928.81;10412393;27;96651;-81
2022/03/30 01:02:02;;;;;;;13.07;7.10;;;13.50;51.30;;;11.70;43.43;98920.84;10406491;27;96770;-80
2022/03/30 01:07:05;;;;;;;16.37;8.87;;;13.30;51.50;;;11.45;43.75;98916.13;10443107;27;96832;-80
2022/03/30 01:12:10;;;;;;;15.33;7.50;;;13.10;51.70;;;11.27;44.48;98915.91;10409737;27;96735;-81
2022/03/30 01:17:22;;;;;;;11.53;6.87;;;12.90;52.00;;;11.07;45.28;98907.91;10419588;27;96500;-80
2022/03/30 01:22:25;;;;;;;16.60;9.13;;;12.70;52.80;;;10.87;46.28;98907.06;10438392;27;96794;-80
2022/03/30 01:27:28;;;;;;;11.80;6.70;;;12.50;53.70;;;10.69;46.61;98903.13;10401378;27;96743;-81
2022/03/30 01:32:31;;;;;;;15.17;8.77;;;12.30;53.70;;;10.54;47.36;98899.81;10405527;27;96436;-81
2022/03/30 01:37:34;;;;;;;13.63;7.00;;;12.10;54.30;;;10.41;47.80;98892.63;10400521;27;96739;-81
2022/03/30 01:42:37;;;;;;;18.23;8.70;;;12.00;54.40;;;10.30;48.53;98889.69;10443930;27;96611;-81
2022/03/30 01:47:40;;;;;;;12.07;6.97;;;11.90;55.40;;;10.18;48.63;98886.75;10439568;27;96548;-81
2022/03/30 01:52:43;;;;;;;11.47;6.40;;;11.80;55.30;;;10.07;48.84;98874.03;10403245;27;96602;-81
2022/03/30 01:57:47;;;;;;;13.97;8.03;;;11.60;55.50;;;9.91;49.11;98878.66;10448285;27;96574;-81
2022/03/30 02:02:50;;;;;;;15.43;8.10;;;11.50;55.80;;;9.75;49.62;98878.97;10427504;27;96520;-80
2022/03/30 02:07:53;;;;;;;18.83;8.37;;;11.40;56.20;;;9.54;49.55;98879.88;10410316;27;96546;-81
2022/03/30 02:12:58;;;;;;;17.97;10.00;;;11.20;56.10;;;9.36;50.05;98883.00;10435151;27;96569;-81
2022/03/30 02:18:05;;;;;;;16.67;7.83;;;11.00;56.40;;;9.19;50.95;98878.97;10433426;27;96545;-81
2022/03/30 02:23:08;;;;;;;12.50;7.47;;;10.90;57.00;;;9.03;51.32;98873.94;10428050;27;96781;-81
2022/03/30 02:28:13;;;;;;;16.17;8.87;;;10.70;57.40;;;8.85;52.04;98875.19;10417086;27;96676;-81
2022/03/30 02:33:16;;;;;;;13.50;7.63;;;10.60;57.80;;;8.72;51.96;98876.91;10420251;27;96735;-80
2022/03/30 02:38:19;;;;;;;15.13;7.80;;;10.40;57.90;;;8.58;52.89;98878.59;10404096;27;96593;-81
2022/03/30 02:43:22;;;;;;;24.63;8.97;;;10.30;58.40;;;8.43;53.40;98872.50;10418051;27;96432;-80
2022/03/30 02:48:28;;;;;;;14.07;7.93;;;10.10;58.90;;;8.32;53.78;98881.72;10403108;27;96560;-80
2022/03/30 02:53:33;;;;;;;23.07;10.90;;;10.00;59.60;;;8.21;55.24;98883.00;10402636;28;96859;-80
2022/03/30 02:58:36;;;;;;;14.50;8.20;;;9.90;59.90;;;8.14;55.03;98882.09;10417291;27;97015;-80
2022/03/30 03:03:38;;;;;;;14.27;7.77;;;9.80;60.40;;;8.08;54.79;98888.13;10404140;28;96748;-81
2022/03/30 03:08:42;;;;;;;16.23;7.83;;;9.80;60.40;;;8.04;55.10;98890.34;10414660;27;99665;-81
2022/03/30 03:13:44;;;;;;;16.33;9.40;;;9.70;60.50;;;7.97;55.10;98885.94;10377900;28;96446;-80
2022/03/30 03:18:47;;;;;;;21.87;10.70;;;9.70;60.90;;;7.90;55.05;98890.31;10418868;27;96572;-79
2022/03/30 03:23:50;;;;;;;15.47;8.67;;;9.60;60.70;;;7.80;55.84;98890.63;10431607;27;96421;-81
2022/03/30 03:28:54;;;;;;;18.13;8.37;;;9.50;61.40;;;7.65;56.21;98898.50;10392751;27;96774;-81
2022/03/30 03:33:57;;;;;;;14.07;8.23;;;9.40;61.80;;;7.54;56.73;98901.59;10422539;27;96956;-81
2022/03/30 03:39:00;;;;;;;13.70;7.77;;;9.20;62.10;;;7.43;56.85;98899.38;10441719;27;96645;-81
2022/03/30 03:44:04;;;;;;;20.07;9.63;;;9.20;62.50;;;7.33;57.33;98904.13;10427221;27;96616;-81
2022/03/30 03:49:08;;;;;;;17.17;8.03;;;9.00;62.80;;;7.23;57.27;98907.00;10439088;27;96785;-80
2022/03/30 03:54:11;;;;;;;16.73;9.80;;;8.90;62.90;;;7.12;57.35;98902.94;10417840;27;96889;-81
2022/03/30 03:59:14;;;;;;;19.83;9.37;;;8.90;63.40;;;7.04;57.95;98907.47;10405956;27;96504;-81
2022/03/30 04:04:18;;;;;;;17.80;8.10;;;8.70;63.40;;;6.92;58.52;98913.16;10421364;27;97384;-81
2022/03/30 04:09:20;;;;;;;15.60;6.93;;;8.70;64.10;;;6.83;58.71;98906.28;10430689;27;96594;-80
2022/03/30 04:14:23;;;;;;;17.57;9.03;;;8.60;64.30;;;6.75;59.27;98910.81;10419633;27;96853;-81
2022/03/30 04:19:27;;;;;;;19.67;10.37;;;8.50;64.90;;;6.67;59.18;98898.50;10430183;27;96689;-81
2022/03/30 04:24:30;;;;;;;14.80;7.33;;;8.40;64.50;;;6.61;59.43;98900.00;10421401;27;96511;-81
2022/03/30 04:29:33;;;;;;;16.37;7.67;;;8.40;65.00;;;6.54;59.67;98909.63;10423139;27;98293;-80
2022/03/30 04:34:36;;;;;;;19.00;10.17;;;8.30;65.80;;;6.50;60.64;98902.22;10397897;27;96541;-80
2022/03/30 04:39:39;;;;;;;16.50;9.30;;;8.20;66.40;;;6.46;60.91;98907.00;10394790;28;96605;-80
2022/03/30 04:44:42;;;;;;;14.23;7.30;;;8.10;66.70;;;6.43;61.02;98915.28;10428493;27;96560;-80
2022/03/30 04:49:44;;;;;;;15.53;8.40;;;8.10;66.90;;;6.43;61.02;98917.94;10425518;27;96679;-80
2022/03/30 04:54:47;;;;;;;14.53;7.00;;;8.10;67.30;;;6.46;61.08;98924.66;10445812;27;98311;-80
2022/03/30 04:59:50;;;;;;;15.03;8.80;;;8.10;67.30;;;6.51;61.41;98925.78;10398869;27;96554;-81
2022/03/30 05:04:54;;;;;;;17.33;8.80;;;8.10;68.40;;;6.59;61.14;98938.94;10431082;27;96994;-80
2022/03/30 05:09:57;;;;;;;24.70;10.27;;;8.10;68.90;;;6.69;61.03;98938.72;10438989;27;97167;-81
2022/03/30 05:15:00;;;;;;;32.53;16.43;;;8.20;68.50;;;6.81;60.47;98939.97;10448944;27;97971;-80
2022/03/30 05:20:05;;;;;;;18.90;9.10;;;8.40;68.20;;;6.95;60.48;98941.03;10421532;27;96577;-80
2022/03/30 05:25:10;;;;;;;19.97;9.33;;;8.50;68.40;;;7.10;60.48;98947.22;10418094;27;96542;-79
2022/03/30 05:30:14;;;;;;;21.47;9.80;;;8.60;68.40;;;7.27;59.90;98952.41;10446654;27;96536;-81
2022/03/30 05:35:17;;;;;;;23.47;11.20;;;8.70;68.20;;;7.47;59.66;98951.72;10417634;27;96649;-81
2022/03/30 05:40:20;;;;;;;19.33;11.70;;;8.90;68.10;;;7.73;59.69;98963.72;10421785;27;96528;-81
2022/03/30 05:45:23;;;;;;;12.70;8.13;;;9.10;68.50;;;8.02;58.95;98957.63;10420851;27;96501;-81
2022/03/30 05:50:26;;;;;;;17.87;10.03;;;9.30;68.60;;;8.35;58.49;98950.16;10442973;27;96475;-81
2022/03/30 05:55:30;;;;;;;15.07;8.10;;;9.60;68.10;;;8.63;57.63;98950.31;10411845;27;98081;-82
2022/03/30 06:00:33;;;;;;;17.37;8.57;;;9.90;67.70;;;8.92;56.93;98948.63;10407198;28;96604;-81
2022/03/30 06:05:37;;;;;;;20.97;9.70;;;10.10;67.60;;;9.16;56.42;98947.44;10421570;27;97117;-82
2022/03/30 06:10:40;;;;;;;15.37;8.83;;;10.40;67.40;;;9.38;55.74;98944.59;10411760;27;96531;-82
2022/03/30 06:15:43;;;;;;;26.27;14.70;;;10.60;66.80;;;9.63;54.90;98946.84;10397265;28;96404;-81
2022/03/30 06:20:47;;;;;;;22.57;11.70;;;10.80;66.40;;;9.86;54.62;98936.81;10396059;28;96517;-82
2022/03/30 06:25:51;;;;;;;13.73;8.50;;;11.00;66.60;;;10.05;53.85;98934.47;10403700;28;96597;-82
2022/03/30 06:30:54;;;;;;;23.27;10.97;;;11.20;65.50;;;10.20;53.00;98935.19;10408483;28;97303;-82
2022/03/30 06:35:57;;;;;;;20.03;10.13;;;11.30;65.10;;;10.31;52.29;98931.16;10435794;27;97465;-82
2022/03/30 06:41:00;;;;;;;18.27;11.33;;;11.40;64.50;;;10.45;51.87;98936.34;10406056;27;96517;-88
2022/03/30 06:46:03;;;;;;;17.80;9.47;;;11.60;64.10;;;10.63;52.16;98940.31;10406381;27;96505;-83
2022/03/30 06:51:07;;;;;;;17.57;9.70;;;11.80;64.00;;;10.80;51.16;98943.44;10412521;27;96834;-83
2022/03/30 06:56:10;;;;;;;20.60;10.23;;;12.00;63.40;;;11.01;50.67;98939.81;10425035;27;98109;-83
2022/03/30 07:01:16;;;;;;;15.50;8.93;;;12.10;63.10;;;11.24;50.36;98943.72;10399251;28;96535;-83
2022/03/30 07:06:19;;;;;;;18.03;9.83;;;12.30;62.90;;;11.50;49.70;98950.91;10382333;28;96775;-84
2022/03/30 07:11:22;;;;;;;55.07;21.60;;;12.50;62.50;;;11.79;48.96;98946.19;10448401;27;96735;-83
2022/03/30 07:16:25;;;;;;;25.33;12.67;;;12.80;62.00;;;12.05;48.93;98948.03;10422250;27;96847;-86
2022/03/30 07:21:28;;;;;;;20.80;10.60;;;13.10;61.80;;;12.28;48.31;98948.38;10445273;27;97010;-82
2022/03/30 07:26:32;;;;;;;19.17;10.63;;;13.30;61.10;;;12.44;47.74;98941.78;10417622;28;96422;-81
2022/03/30 07:31:34;;;;;;;20.70;10.87;;;13.50;60.80;;;12.74;47.61;98946.59;10412889;28;96590;-82
2022/03/30 07:36:38;;;;;;;38.53;10.87;;;13.80;60.70;;;12.94;46.60;98935.81;10411629;28;96394;-82
2022/03/30 07:41:42;;;;;;;17.93;10.27;;;14.00;60.10;;;13.22;46.78;98922.16;10391422;28;96979;-82
2022/03/30 07:46:48;;;;;;;20.50;9.93;;;14.20;59.90;;;13.57;45.21;98911.81;10404433;28;96603;-81
2022/03/30 07:51:51;;;;;;;20.13;10.70;;;14.60;58.90;;;14.03;43.68;98918.56;10383089;28;97201;-82
2022/03/30 07:56:54;;;;;;;15.02;9.35;;;15.00;58.40;;;14.55;42.41;98919.06;10427801;27;96575;-81
2022/03/30 08:02:02;;;;;;;17.02;9.90;;;15.50;57.20;;;15.06;41.32;98923.13;10439232;27;96460;-82
2022/03/30 08:07:05;;;;;;;22.20;11.73;;;15.90;57.00;;;15.40;40.32;98929.59;10391941;28;96455;-82
2022/03/30 08:12:12;;;;;;;16.63;10.32;;;16.30;55.70;;;15.73;39.89;98935.25;10395005;28;96593;-82
2022/03/30 08:17:15;;;;;;;18.73;10.60;;;16.60;54.90;;;15.92;39.82;98927.94;10422194;28;96449;-82
2022/03/30 08:22:28;;;;;;;16.90;10.32;;;16.90;53.90;;;16.19;39.59;98935.47;10391343;28;96412;-82
2022/03/30 08:27:32;;;;;;;20.50;10.55;;;17.10;54.00;;;16.67;38.05;98934.31;10382266;28;97302;-82
2022/03/30 08:32:35;;;;;;;16.88;10.10;;;17.40;53.40;;;16.93;37.92;98933.81;10381174;28;96553;-82
2022/03/30 08:37:38;;;;;;;18.88;11.00;;;17.60;53.00;;;17.38;36.76;98924.94;10380250;28;96531;-82
2022/03/30 08:42:41;;;;;;;20.20;10.70;;;18.00;52.50;;;17.41;36.41;98935.19;10381216;28;96428;-82
2022/03/30 08:47:44;;;;;;;16.88;10.38;;;18.20;51.60;;;17.48;36.45;98935.03;10366323;28;96724;-82
2022/03/30 08:52:49;;;;;;;21.33;12.65;;;18.40;51.10;;;17.87;36.90;98935.94;10379368;28;96800;-82
2022/03/30 08:57:54;;;;;;;23.80;12.13;;;18.60;51.10;;;17.77;35.24;98938.50;10396551;28;96514;-82
2022/03/30 09:03:00;;;;;;;19.45;11.02;;;18.70;49.80;;;17.80;35.22;98928.06;10410018;28;96513;-82
2022/03/30 09:08:20;;;;;;;18.48;11.85;;;18.80;49.40;;;18.06;35.43;98926.56;10402030;28;96627;-82
2022/03/30 09:13:25;;;;;;;17.33;11.07;;;19.00;49.20;;;18.20;35.31;98916.25;10421135;28;96560;-82
2022/03/30 09:18:28;;;;;;;21.05;11.30;;;19.10;49.20;;;18.30;34.54;98923.66;10422041;28;96603;-82
2022/03/30 09:23:32;;;;;;;18.80;10.35;;;19.30;48.80;;;18.44;34.80;98924.91;10405107;28;96484;-82
2022/03/30 09:28:35;;;;;;;19.15;10.88;;;19.40;48.50;;;18.55;33.44;98917.78;10380563;28;96722;-82
2022/03/30 09:33:38;;;;;;;18.88;11.15;;;19.50;48.00;;;18.71;33.54;98907.00;10410580;28;96624;-82
2022/03/30 09:38:41;;;;;;;20.67;11.88;;;19.70;47.60;;;18.86;32.67;98902.81;10401224;28;96455;-82
2022/03/30 09:43:44;;;;;;;18.38;11.13;;;19.90;47.10;;;19.07;32.53;98875.06;10362436;28;96442;-83
2022/03/30 09:48:53;;;;;;;17.02;10.38;;;20.10;46.60;;;19.35;32.62;98870.44;10384560;28;97026;-82
2022/03/30 09:53:56;;;;;;;24.23;11.87;;;20.30;46.30;;;19.42;31.72;98863.75;10423892;28;96511;-82
2022/03/30 09:59:01;;;;;;;19.23;10.38;;;20.50;45.90;;;19.78;31.71;98850.53;10409338;28;96480;-82
2022/03/30 10:04:04;;;;;;;16.15;10.05;;;20.70;45.70;;;20.09;31.42;98845.31;10405529;28;96473;-82
2022/03/30 10:09:08;;;;;;;15.63;10.30;;;21.00;45.20;;;20.25;30.40;98849.72;10399324;28;96412;-83
2022/03/30 10:14:12;;;;;;;19.92;11.30;;;21.20;44.90;;;20.40;29.85;98839.00;10440926;27;96483;-83
2022/03/30 10:19:16;;;;;;;19.63;12.02;;;21.40;44.30;;;20.45;29.91;98830.94;10399994;28;96515;-83
2022/03/30 10:24:49;;;;;;;22.23;14.82;;;21.50;44.30;;;20.34;30.89;98837.34;10413284;28;96575;-83
2022/03/30 10:29:56;;;;;;;27.35;12.90;;;21.40;43.90;;;20.53;30.94;98835.81;10433954;27;96660;-83
2022/03/30 10:35:00;;;;;;;22.80;14.23;;;21.50;44.40;;;20.75;30.64;98822.09;10413579;27;96568;-83
2022/03/30 10:40:03;;;;;;;22.80;12.88;;;21.70;44.00;;;20.79;30.59;98823.16;10383712;28;96635;-82
2022/03/30 10:45:45;;;;;;;20.40;11.48;;;21.80;43.70;;;20.63;29.97;98826.09;10418874;28;96977;-83
2022/03/30 10:50:58;;;;;;;22.33;12.05;;;21.70;43.30;;;20.27;30.72;98816.03;10385431;28;96524;-82
2022/03/30 10:56:07;;;;;;;19.58;11.27;;;21.50;43.20;;;20.09;30.79;98807.56;10398923;28;96600;-82
2022/03/30 11:01:25;;;;;;;24.60;12.00;;;21.30;43.40;;;20.02;31.61;98803.22;10384500;28;96736;-83
2022/03/30 11:06:36;;;;;;;22.40;11.13;;;21.20;43.90;;;20.13;31.95;98811.38;10398059;28;96541;-83
2022/03/30 11:11:45;;;;;;;20.85;10.85;;;21.20;44.50;;;20.13;32.08;98805.97;10394532;28;96385;-83
2022/03/30 11:16:49;;;;;;;22.35;10.20;;;21.30;44.30;;;20.00;32.34;98786.50;10406319;28;96538;-82
2022/03/30 11:22:07;;;;;;;16.92;10.45;;;21.10;44.60;;;19.83;32.53;98791.28;10411152;28;96580;-82
2022/03/30 11:27:10;;;;;;;17.40;10.48;;;21.00;44.80;;;19.73;32.86;98789.38;10409685;28;96964;-83
2022/03/30 11:32:22;;;;;;;17.15;9.48;;;20.90;45.10;;;19.87;32.59;98770.81;10382348;28;96568;-83
2022/03/30 11:37:37;;;;;;;17.98;9.38;;;20.90;45.00;;;19.81;32.60;98761.09;10400924;28;96556;-83
2022/03/30 11:42:52;;;;;;;18.58;9.77;;;20.90;45.00;;;19.66;33.03;98761.00;10425455;27;96595;-83
2022/03/30 11:48:14;;;;;;;14.80;9.27;;;20.80;45.20;;;19.62;33.41;98747.25;10423194;28;96545;-83
2022/03/30 11:53:26;;;;;;;18.85;9.45;;;20.70;45.60;;;19.64;33.53;98738.91;10389235;28;96922;-83
2022/03/30 11:58:34;;;;;;;12.48;7.85;;;20.70;45.70;;;19.81;33.81;98734.13;10394715;27;96465;-83
2022/03/30 12:03:40;;;;;;;16.77;8.53;;;20.90;45.80;;;20.01;33.10;98730.69;10398685;28;96488;-83
2022/03/30 12:08:49;;;;;;;12.45;8.13;;;21.10;45.70;;;19.84;33.48;98722.00;10417234;28;96817;-83
2022/03/30 12:13:54;;;;;;;17.33;9.15;;;21.00;45.70;;;19.64;33.86;98722.75;10403107;27;96531;-83
2022/03/30 12:19:01;;;;;;;16.60;8.13;;;20.80;45.70;;;19.47;33.41;98712.13;10415727;27;96583;-85
2022/03/30 12:24:07;;;;;;;17.48;9.07;;;20.70;45.60;;;19.21;33.53;98713.88;10395523;27;98038;-84
2022/03/30 12:29:31;;;;;;;13.77;8.18;;;20.50;45.70;;;18.94;34.31;98709.38;10400486;27;96578;-84
2022/03/30 12:34:35;;;;;;;17.30;8.10;;;20.20;46.50;;;18.74;35.51;98701.16;10400478;28;96814;-84
2022/03/30 12:39:44;;;;;;;12.98;7.75;;;19.90;47.00;;;18.58;35.79;98696.69;10395391;27;97544;-80
2022/03/30 12:44:58;;;;;;;15.38;8.63;;;19.80;47.60;;;18.39;35.84;98677.41;10417496;27;96737;-81
2022/03/30 12:50:16;;;;;;;13.83;8.37;;;19.60;47.70;;;18.12;36.11;98678.25;10410782;27;96692;-80
2022/03/30 12:55:30;;;;;;;13.43;7.75;;;19.30;47.90;;;17.95;36.37;98672.16;10423439;27;96707;-81
2022/03/30 13:00:51;;;;;;;13.60;7.43;;;19.10;48.10;;;17.85;36.78;98663.97;10465662;27;96632;-81
2022/03/30 13:06:07;;;;;;;13.80;7.30;;;19.00;48.30;;;17.66;36.97;98672.34;10439214;27;96522;-81
2022/03/30 13:11:10;;;;;;;17.00;9.98;;;18.90;48.60;;;17.41;37.30;98658.63;10432253;27;96397;-82
2022/03/30 13:16:17;;;;;;;46.78;42.08;;;18.60;48.80;;;17.27;37.95;98650.13;10416692;27;96556;-81
2022/03/30 13:21:21;;;;;;;12.98;9.77;;;18.50;49.40;;;17.15;38.27;98656.66;10389222;27;96534;-81
2022/03/30 13:26:35;;;;;;;23.67;19.08;;;18.30;49.70;;;16.93;38.57;98646.69;10387187;27;96773;-81
2022/03/30 13:31:43;;;;;;;12.43;8.43;;;18.10;50.00;;;16.82;39.20;98648.41;10405109;27;96543;-82
2022/03/30 13:36:46;;;;;;;13.23;9.15;;;18.00;50.40;;;16.81;38.66;98641.44;10469661;27;96531;-82
2022/03/30 13:41:52;;;;;;;11.48;7.78;;;18.00;50.30;;;16.78;39.20;98649.97;10421144;27;96706;-82
2022/03/30 13:46:55;;;;;;;19.48;9.95;;;17.90;50.40;;;16.70;38.91;98645.03;10440595;27;98140;-84
2022/03/30 13:51:58;;;;;;;17.60;9.52;;;17.90;50.50;;;16.55;38.37;98642.91;10449843;27;97030;-83
2022/03/30 13:57:01;;;;;;;15.30;8.90;;;17.70;50.00;;;16.48;38.30;98638.72;10422108;27;98469;-83
2022/03/30 14:02:04;;;;;;;52.70;19.35;;;17.70;49.90;;;16.41;38.38;98635.41;10435314;27;98083;-83
2022/03/30 14:07:07;;;;;;;30.55;11.85;;;17.60;49.90;;;16.27;38.78;98630.38;10402842;27;96645;-84
2022/03/30 14:12:14;;;;;;;56.40;19.05;;;17.50;50.00;;;16.08;39.42;98628.97;10420989;27;97145;-77
2022/03/30 14:17:17;;;;;;;47.20;16.17;;;17.30;50.50;;;15.89;40.65;98625.69;10421841;27;96559;-78
2022/03/30 14:22:20;;;;;;;194.30;46.85;;;17.20;51.30;;;15.78;41.29;98615.84;10417013;27;96633;-79
2022/03/30 14:27:23;;;;;;;75.22;22.67;;;17.00;52.10;;;15.69;42.17;98617.28;10394667;27;96652;-80
2022/03/30 14:32:27;;;;;;;23.30;10.93;;;16.90;53.20;;;15.56;42.91;98623.69;10407241;27;96613;-80
2022/03/30 14:37:31;;;;;;;958.97;256.40;;;16.80;53.60;;;15.52;43.28;98619.88;10433376;27;96796;-81
2022/03/30 14:42:35;;;;;;;349.65;98.30;;;16.70;53.90;;;15.42;43.56;98625.84;10424351;27;96639;-81
2022/03/30 14:47:39;;;;;;;107.57;31.88;;;16.60;54.60;;;15.25;43.97;98628.44;10418508;27;96578;-81
2022/03/30 14:52:42;;;;;;;74.97;22.08;;;16.50;54.80;;;15.14;43.84;98623.94;10409341;27;97127;-82
2022/03/30 14:57:51;;;;;;;27.23;10.98;;;16.40;54.90;;;15.06;44.29;98626.16;10408873;27;96678;-82
2022/03/30 15:02:57;;;;;;;80.80;26.42;;;16.30;55.00;;;15.00;44.58;98617.22;10426067;27;96599;-81
2022/03/30 15:08:00;;;;;;;146.75;41.63;;;16.20;55.10;;;14.96;44.60;98614.19;10427709;27;96538;-81
2022/03/30 15:13:04;;;;;;;31.25;13.13;;;16.20;55.10;;;14.92;44.62;98614.88;10388371;28;98098;-85
2022/03/30 15:18:08;;;;;;;14.80;7.88;;;16.20;55.10;;;14.82;45.46;98601.31;10407027;27;96424;-83
2022/03/30 15:23:10;;;;;;;13.27;7.97;;;16.10;55.60;;;14.76;45.88;98599.56;10418106;27;98169;-84
2022/03/30 15:28:14;;;;;;;11.85;6.00;;;16.00;56.10;;;14.72;46.25;98600.03;10395967;27;96865;-84
2022/03/30 15:33:17;;;;;;;15.88;7.30;;;16.00;56.40;;;14.71;46.75;98598.41;10393040;28;96789;-84
2022/03/30 15:38:20;;;;;;;13.73;6.30;;;15.90;57.60;;;14.69;47.75;98597.84;10381120;28;96558;-84
2022/03/30 15:43:23;;;;;;;13.40;6.05;;;15.90;57.50;;;14.67;48.74;98599.91;10415941;27;96581;-79
2022/03/30 15:48:27;;;;;;;9.70;5.88;;;15.90;58.70;;;14.64;48.82;98599.56;10442263;27;96954;-82
2022/03/30 15:53:30;;;;;;;13.13;4.63;;;15.80;59.00;;;14.59;49.13;98602.94;10409508;27;96780;-81
2022/03/30 15:58:34;;;;;;;8.90;4.60;;;15.80;59.50;;;14.57;49.35;98599.66;10409224;27;96503;-81
2022/03/30 16:03:37;;;;;;;11.13;5.00;;;15.70;59.50;;;14.54;49.53;98600.16;10422396;27;96596;-81
2022/03/30 16:08:58;;;;;;;7.85;4.55;;;15.80;59.70;;;14.53;49.43;98600.38;10385716;27;96506;-80
2022/03/30 16:14:01;;;;;;;;;;;15.70;59.60;;;14.51;49.61;98599.78;10427464;27;96952;-81
2022/03/30 16:19:05;;;;;;;10.93;4.78;;;15.80;59.90;;;14.47;49.66;98593.28;10440110;27;96538;-82
2022/03/30 16:24:12;;;;;;;9.68;5.65;;;15.70;60.00;;;14.44;49.65;98599.88;10404187;27;96518;-82
2022/03/30 16:29:16;;;;;;;8.68;4.65;;;15.60;59.90;;;14.40;49.96;98598.72;10397396;28;97025;-81
2022/03/30 16:34:21;;;;;;;10.80;5.10;;;15.60;60.60;;;14.40;50.16;98586.19;10388456;28;96687;-81
2022/03/30 16:39:27;;;;;;;14.10;5.78;;;15.60;60.40;;;14.37;50.14;98581.28;10392718;27;96510;-81
2022/03/30 16:44:30;;;;;;;30.20;14.20;;;15.60;60.40;;;14.34;50.02;98583.63;10410656;28;96905;-84
2022/03/30 16:49:33;;;;;;;21.02;7.82;;;15.60;60.50;;;14.31;50.03;98581.41;10426248;27;96837;-83
2022/03/30 16:54:36;;;;;;;19.60;7.23;;;15.60;60.80;;;14.29;50.47;98576.28;10441332;27;97539;-82
2022/03/30 16:59:39;;;;;;;15.20;6.50;;;15.50;60.60;;;14.26;50.26;98575.91;10448886;27;96608;-82
2022/03/30 17:04:42;;;;;;;13.98;6.38;;;15.50;60.80;;;14.23;49.97;98566.53;10422152;27;96692;-82
2022/03/30 17:09:57;;;;;;;16.27;6.30;;;15.50;60.90;;;14.22;50.15;98564.09;10427939;27;96562;-80
2022/03/30 17:15:00;;;;;;;12.07;6.23;;;15.40;61.10;;;14.21;49.82;98568.59;10426140;27;96637;-80
2022/03/30 17:20:04;;;;;;;9.90;4.73;;;15.40;60.90;;;14.17;49.94;98562.09;10425891;27;96937;-81
2022/03/30 17:25:07;;;;;;;12.93;5.27;;;15.40;60.80;;;14.11;49.93;98563.03;10434822;27;96677;-80
2022/03/30 17:30:10;;;;;;;11.47;5.70;;;15.40;60.90;;;14.08;49.78;98564.28;10424885;27;98014;-80
2022/03/30 17:35:14;;;;;;;14.38;6.47;;;15.30;60.90;;;14.06;49.52;98571.72;10450503;27;96557;-79
2022/03/30 17:40:19;;;;;;;20.00;5.80;;;15.30;61.10;;;14.06;49.39;98570.91;10453448;27;96741;-77
2022/03/30 17:45:28;;;;;;;11.50;5.77;;;15.20;60.70;;;14.02;49.11;98573.22;10401517;27;98236;-79
2022/03/30 17:55:53;;;;;;;12.33;6.20;;;15.20;60.50;;;13.98;49.24;98580.06;10421944;27;96955;-78
2022/03/30 18:01:03;;;;;;;13.77;5.60;;;15.20;60.60;;;13.95;49.63;98591.19;10427506;27;98017;-79
2022/03/30 18:06:07;;;;;;;15.83;6.90;;;15.20;60.90;;;13.89;49.83;98587.59;10427672;27;97625;-81
2022/03/30 18:11:13;;;;;;;20.10;7.77;;;15.20;61.20;;;13.86;50.12;98597.94;10420255;27;96598;-83
2022/03/30 18:16:17;;;;;;;15.63;5.30;;;15.10;61.30;;;13.85;50.02;98598.94;10420387;27;96668;-86
2022/03/30 18:21:20;;;;;;;10.00;4.60;;;15.00;61.40;;;13.81;49.49;98601.28;10394456;27;96769;-78
2022/03/30 18:26:23;;;;;;;12.83;4.23;;;15.00;61.10;;;13.80;48.99;98601.50;10469444;27;96521;-78
2022/03/30 18:31:26;;;;;;;12.90;5.03;;;15.00;60.90;;;13.76;48.57;98611.81;10395329;27;96672;-81
2022/03/30 18:36:30;;;;;;;13.77;5.20;;;14.90;60.40;;;13.74;48.22;98610.44;10451539;27;96420;-79
2022/03/30 18:41:36;;;;;;;11.73;4.50;;;14.90;60.00;;;13.71;48.12;98618.88;10400972;27;96548;-78
2022/03/30 18:46:41;;;;;;;9.02;4.38;;;14.90;59.80;;;13.65;49.08;98617.91;10412879;27;97047;-81
2022/03/30 18:51:46;;;;;;;11.90;4.43;;;14.80;60.20;;;13.61;49.87;98612.25;10441474;27;96476;-80
2022/03/30 18:56:49;;;;;;;11.63;4.73;;;14.90;60.70;;;13.57;50.43;98608.38;10399889;27;96690;-79
2022/03/30 19:01:54;;;;;;;11.10;4.43;;;14.80;61.20;;;13.54;51.67;98610.69;10434843;27;96490;-82
2022/03/30 19:06:57;;;;;;;11.53;4.27;;;14.80;62.00;;;13.49;51.94;98618.53;10425237;27;96624;-82
2022/03/30 19:12:02;;;;;;;9.90;3.90;;;14.70;62.70;;;13.45;52.54;98610.19;10433614;27;96694;-85
2022/03/30 19:17:05;;;;;;;14.37;4.50;;;14.70;63.40;;;13.43;52.74;98622.91;10427127;27;96550;-84
2022/03/30 19:22:08;;;;;;;12.02;4.72;;;14.70;63.90;;;13.39;53.18;98625.25;10428852;27;96603;-84
2022/03/30 19:27:11;;;;;;;8.40;4.47;;;14.70;64.00;;;13.32;53.59;98621.03;10413303;28;96566;-84
2022/03/30 19:32:18;;;;;;;11.73;5.03;;;14.60;64.20;;;13.27;53.83;98621.69;10410843;28;96542;-84
2022/03/30 19:37:21;;;;;;;8.30;4.33;;;14.60;64.50;;;13.23;54.18;98630.34;10411669;28;96535;-84
2022/03/30 19:42:24;;;;;;;11.80;4.80;;;14.60;64.50;;;13.17;54.28;98633.88;10430703;27;96541;-84
2022/03/30 19:47:27;;;;;;;8.07;4.33;;;14.50;64.70;;;13.12;54.59;98624.69;10410184;28;96515;-84
2022/03/30 19:52:30;;;;;;;8.83;4.23;;;14.50;65.00;;;13.09;54.39;98609.16;10442436;27;96417;-84
2022/03/30 19:57:34;;;;;;;11.93;4.87;;;14.40;65.20;;;13.07;54.70;98613.06;10408241;27;96540;-84
2022/03/30 20:02:37;;;;;;;9.87;4.73;;;14.40;65.80;;;13.03;54.85;98615.38;10441974;27;96657;-83
2022/03/30 20:07:40;;;;;;;14.30;5.20;;;14.40;66.20;;;12.98;55.47;98612.56;10401658;27;96553;-84
2022/03/30 20:12:43;;;;;;;14.47;4.80;;;14.30;66.60;;;12.86;56.23;98606.31;10405730;27;96905;-84
2022/03/30 20:17:47;;;;;;;8.63;4.57;;;14.20;67.40;;;12.74;57.19;98610.75;10428092;27;96601;-84
2022/03/30 20:22:51;;;;;;;12.23;4.70;;;14.10;69.00;;;12.57;57.98;98605.97;10431456;27;97385;-85
2022/03/30 20:27:55;;;;;;;8.67;4.10;;;13.90;69.80;;;12.46;58.67;98593.38;10420296;27;98140;-88
2022/03/30 20:32:58;;;;;;;14.70;4.90;;;13.80;70.40;;;12.34;58.88;98592.47;10444461;27;96665;-83
2022/03/30 20:38:02;;;;;;;15.80;5.73;;;13.70;71.70;;;12.27;58.48;98594.38;10415229;27;96748;-84
2022/03/30 20:43:05;;;;;;;11.13;5.57;;;13.60;71.20;;;12.24;58.93;98600.97;10431271;27;96584;-88
2022/03/30 20:48:09;;;;;;;12.17;4.20;;;13.60;71.50;;;12.17;59.60;98580.72;10444597;27;98176;-89
2022/03/30 20:53:12;;;;;;;10.37;4.33;;;13.50;72.50;;;12.09;60.15;98586.31;10450341;27;96516;-85
2022/03/30 20:58:15;;;;;;;10.77;4.30;;;13.40;73.70;;;12.00;60.18;98575.94;10425104;27;96561;-85
2022/03/30 21:03:18;;;;;;;13.10;5.43;;;13.30;73.90;;;11.99;60.23;98581.47;10427135;27;96673;-85